Time;durP1;ratioP1;P1;durP2;ratioP2;P2;SDS_P1;SDS_P2;PMS_P1;PMS_P2;Temp;Humidity;BMP_temperature;BMP_pressure;BME280_temperature;BME280_humidity;BME280_pressure;Samples;Min_cycle;Max_cycle;Signal;HPM_P1;HPM_P2
2022/08/07 00:00:59;;;;;;;2.20;2.10;;;33.40;43.70;;;;;;5067202;28;21120;-68
2022/08/07 00:03:49;;;;;;;8.93;8.00;;;33.40;42.10;;;;;;5070340;28;20585;-69
2022/08/07 00:06:20;;;;;;;4.20;3.87;;;33.40;42.80;;;;;;5061329;28;20775;-69
2022/08/07 00:09:03;;;;;;;2.70;2.50;;;33.40;42.50;;;;;;5047269;28;20988;-69
2022/08/07 00:11:46;;;;;;;6.37;5.93;;;33.20;42.10;;;;;;5061573;28;20487;-69
2022/08/07 00:14:29;;;;;;;2.23;2.13;;;33.20;42.20;;;;;;5062375;28;20546;-69
2022/08/07 00:17:03;;;;;;;2.17;1.83;;;33.20;42.50;;;;;;5055755;28;20451;-70
2022/08/07 00:19:35;;;;;;;1.90;1.80;;;33.20;42.60;;;;;;5081589;28;20446;-69
2022/08/07 00:22:26;;;;;;;2.33;2.23;;;33.20;42.50;;;;;;5079060;28;20521;-69
2022/08/07 00:25:05;;;;;;;2.23;2.13;;;33.10;42.10;;;;;;5068769;28;20506;-69
2022/08/07 00:27:49;;;;;;;2.00;1.90;;;33.00;41.80;;;;;;5069236;28;20538;-69
2022/08/07 00:30:23;;;;;;;1.93;1.83;;;33.00;43.10;;;;;;5079211;28;20869;-68
2022/08/07 00:32:59;;;;;;;2.83;2.63;;;32.90;42.50;;;;;;5081470;28;20449;-68
2022/08/07 00:35:31;;;;;;;2.37;2.27;;;32.80;43.60;;;;;;5065534;28;20590;-68
2022/08/07 00:38:06;;;;;;;2.10;2.00;;;32.80;44.00;;;;;;5061414;28;20452;-70
2022/08/07 00:40:38;;;;;;;2.87;2.67;;;32.70;43.40;;;;;;5061100;28;20489;-70
2022/08/07 00:43:11;;;;;;;1.90;1.80;;;32.60;43.90;;;;;;5061685;28;20469;-70
2022/08/07 00:46:03;;;;;;;2.30;2.10;;;32.50;44.60;;;;;;5065882;28;20445;-69
2022/08/07 00:48:38;;;;;;;2.10;2.00;;;32.50;45.30;;;;;;5081665;28;20453;-69
2022/08/07 00:51:11;;;;;;;1.80;1.70;;;32.30;45.50;;;;;;5066588;28;20455;-70
2022/08/07 00:53:42;;;;;;;1.90;1.80;;;32.30;45.80;;;;;;5062654;28;20449;-70
2022/08/07 00:56:24;;;;;;;2.00;1.90;;;32.30;46.70;;;;;;5081813;28;20453;-70
2022/08/07 00:59:03;;;;;;;1.80;1.70;;;32.20;47.00;;;;;;5068232;28;20522;-70
2022/08/07 01:01:34;;;;;;;2.00;1.90;;;32.20;47.10;;;;;;5060916;28;20465;-69
2022/08/07 01:04:16;;;;;;;1.83;1.73;;;32.10;46.80;;;;;;5061882;28;20538;-70
2022/08/07 01:06:54;;;;;;;1.90;1.80;;;32.00;46.50;;;;;;5060606;28;20487;-69
2022/08/07 01:09:26;;;;;;;1.70;1.60;;;32.00;47.20;;;;;;5061322;28;20463;-70
2022/08/07 01:12:17;;;;;;;1.70;1.60;;;31.90;47.40;;;;;;5067304;28;20451;-70
2022/08/07 01:15:00;;;;;;;1.90;1.80;;;31.80;47.20;;;;;;5068034;28;20457;-70
2022/08/07 01:17:33;;;;;;;2.10;1.90;;;31.70;48.10;;;;;;5078167;28;20533;-69
2022/08/07 01:20:09;;;;;;;1.83;1.73;;;31.60;48.90;;;;;;5080667;28;20792;-69
2022/08/07 01:22:48;;;;;;;1.60;1.50;;;31.50;49.60;;;;;;5054258;28;20571;-70
2022/08/07 01:25:40;;;;;;;1.80;1.70;;;31.40;49.50;;;;;;5064859;28;20443;-70
2022/08/07 01:28:25;;;;;;;2.03;1.93;;;31.40;49.70;;;;;;5074009;28;20459;-70
2022/08/07 01:30:57;;;;;;;1.90;1.80;;;31.40;50.10;;;;;;5082575;28;20466;-69
2022/08/07 01:33:32;;;;;;;1.80;1.70;;;31.30;50.10;;;;;;5084774;28;20545;-69
2022/08/07 01:36:23;;;;;;;1.80;1.70;;;31.20;50.50;;;;;;5050551;28;20579;-70
2022/08/07 01:39:06;;;;;;;1.60;1.50;;;31.20;50.00;;;;;;5065173;28;20527;-70
2022/08/07 01:41:42;;;;;;;1.73;1.63;;;31.20;50.20;;;;;;5082293;28;20558;-69
2022/08/07 01:44:33;;;;;;;1.93;1.83;;;31.10;50.60;;;;;;5052387;28;20529;-70
2022/08/07 01:47:04;;;;;;;2.13;2.03;;;31.00;50.70;;;;;;5064668;28;20803;-69
2022/08/07 01:49:56;;;;;;;1.87;1.77;;;30.90;50.90;;;;;;5082937;28;20446;-69
2022/08/07 01:52:31;;;;;;;2.07;1.90;;;30.80;51.10;;;;;;5083455;28;20603;-69
2022/08/07 01:55:05;;;;;;;2.10;1.80;;;30.70;51.30;;;;;;5072557;28;20463;-69
2022/08/07 01:57:53;;;;;;;2.20;2.03;;;30.80;51.40;;;;;;5067255;28;20909;-69
2022/08/07 02:00:45;;;;;;;2.10;1.73;;;30.70;52.10;;;;;;5083532;28;20437;-69
2022/08/07 02:03:22;;;;;;;1.37;1.33;;;30.60;51.70;;;;;;5084643;28;20481;-69
2022/08/07 02:06:02;;;;;;;2.10;2.00;;;30.50;51.90;;;;;;5080854;28;20456;-69
2022/08/07 02:08:55;;;;;;;2.00;1.90;;;30.50;52.20;;;;;;5073916;28;20449;-69
2022/08/07 02:11:28;;;;;;;2.30;2.10;;;30.50;52.50;;;;;;5083732;28;20461;-69
2022/08/07 02:14:20;;;;;;;2.23;2.13;;;30.30;52.80;;;;;;5057010;28;20461;-69
2022/08/07 02:17:13;;;;;;;1.87;1.70;;;30.20;52.80;;;;;;5083713;28;20821;-69
2022/08/07 02:19:55;;;;;;;1.67;1.57;;;30.20;53.10;;;;;;5083627;28;20472;-69
2022/08/07 02:22:38;;;;;;;2.20;2.10;;;30.00;53.40;;;;;;5082620;28;20480;-69
2022/08/07 02:25:14;;;;;;;1.93;1.80;;;29.90;53.20;;;;;;5084017;28;20475;-69
2022/08/07 02:27:49;;;;;;;2.00;1.90;;;29.90;54.10;;;;;;5058294;28;20463;-69
2022/08/07 02:30:22;;;;;;;2.10;2.00;;;29.80;54.70;;;;;;5078665;28;20459;-69
2022/08/07 02:32:56;;;;;;;1.87;1.77;;;29.70;54.30;;;;;;5062742;28;20468;-69
2022/08/07 02:35:40;;;;;;;1.97;1.87;;;29.70;54.10;;;;;;5080743;28;20613;-69
2022/08/07 02:38:36;;;;;;;2.10;2.00;;;29.50;54.60;;;;;;5083292;28;20446;-69
2022/08/07 02:41:07;;;;;;;1.80;1.70;;;29.50;54.80;;;;;;5082861;28;20460;-68
2022/08/07 02:43:43;;;;;;;2.27;2.17;;;29.40;55.30;;;;;;5066835;28;20566;-69
2022/08/07 02:46:20;;;;;;;2.10;1.80;;;29.30;55.80;;;;;;5078026;28;20462;-70
2022/08/07 02:48:54;;;;;;;2.40;2.20;;;29.30;56.10;;;;;;5064102;28;20492;-69
2022/08/07 02:51:28;;;;;;;2.30;2.10;;;29.20;56.20;;;;;;5062425;28;20602;-69
2022/08/07 02:54:20;;;;;;;2.10;2.00;;;29.00;56.80;;;;;;5063584;28;20438;-69
2022/08/07 02:56:56;;;;;;;2.27;2.10;;;28.90;57.50;;;;;;5072852;28;20484;-69
2022/08/07 02:59:32;;;;;;;2.23;1.80;;;28.80;57.20;;;;;;5068910;28;20486;-69
2022/08/07 03:02:03;;;;;;;2.00;1.87;;;28.70;57.50;;;;;;5079786;28;20486;-70
2022/08/07 03:04:38;;;;;;;2.00;1.90;;;28.70;57.90;;;;;;5083366;28;20434;-69
2022/08/07 03:07:09;;;;;;;2.00;1.90;;;28.60;58.00;;;;;;5062737;28;20546;-69
2022/08/07 03:09:42;;;;;;;3.53;1.70;;;28.50;59.00;;;;;;5063425;28;20549;-69
2022/08/07 03:12:19;;;;;;;2.23;2.13;;;28.30;58.80;;;;;;5065522;28;22282;-69
2022/08/07 03:15:00;;;;;;;2.00;1.90;;;28.20;59.20;;;;;;5082853;28;20452;-69
2022/08/07 03:17:37;;;;;;;2.40;2.20;;;28.10;59.70;;;;;;5082814;28;20485;-69
2022/08/07 03:20:24;;;;;;;2.27;2.07;;;28.00;59.40;;;;;;5080037;28;20439;-69
2022/08/07 03:22:55;;;;;;;2.00;1.80;;;27.90;60.10;;;;;;5061758;28;20618;-69
2022/08/07 03:25:30;;;;;;;1.90;1.80;;;27.80;61.00;;;;;;5073709;28;20496;-69
2022/08/07 03:28:13;;;;;;;2.10;1.90;;;27.70;61.90;;;;;;5081882;28;20494;-70
2022/08/07 03:31:19;;;;;;;2.13;2.03;;;27.60;62.00;;;;;;5070331;28;20831;-69
2022/08/07 03:33:56;;;;;;;2.43;2.23;;;27.40;62.50;;;;;;5081804;28;20460;-69
2022/08/07 03:36:30;;;;;;;2.23;2.03;;;27.30;62.60;;;;;;5072632;28;20550;-69
2022/08/07 03:39:05;;;;;;;1.73;1.63;;;27.20;63.60;;;;;;5082531;28;20455;-69
2022/08/07 03:41:38;;;;;;;2.20;2.10;;;27.10;64.10;;;;;;5081830;28;20551;-69
2022/08/07 03:44:17;;;;;;;2.20;2.10;;;27.00;64.10;;;;;;5081734;28;20475;-69
2022/08/07 03:47:03;;;;;;;2.70;2.50;;;26.90;64.20;;;;;;5076329;28;20540;-69
2022/08/07 03:49:44;;;;;;;2.13;1.93;;;26.80;65.30;;;;;;5062796;28;20488;-69
2022/08/07 03:52:24;;;;;;;2.33;2.13;;;26.70;65.40;;;;;;5077078;28;20458;-70
2022/08/07 03:54:58;;;;;;;2.30;2.10;;;26.70;65.20;;;;;;5062407;28;20455;-69
2022/08/07 03:57:37;;;;;;;2.40;2.10;;;26.60;65.80;;;;;;5062004;28;20451;-69
2022/08/07 04:00:30;;;;;;;2.67;2.47;;;26.50;66.30;;;;;;5062200;28;20507;-69
2022/08/07 04:03:05;;;;;;;2.47;2.37;;;26.40;66.90;;;;;;5067228;28;20490;-69
2022/08/07 04:05:38;;;;;;;2.00;1.90;;;26.30;67.20;;;;;;5081826;28;20446;-70
2022/08/07 04:08:15;;;;;;;2.20;2.10;;;26.20;67.60;;;;;;5067501;28;20462;-69
2022/08/07 04:10:50;;;;;;;1.97;1.87;;;26.10;67.60;;;;;;5081727;28;20448;-69
2022/08/07 04:13:41;;;;;;;2.90;2.30;;;26.20;67.00;;;;;;5071377;28;20455;-69
2022/08/07 04:16:32;;;;;;;2.63;2.43;;;26.10;67.40;;;;;;5061898;28;20482;-69
2022/08/07 04:19:05;;;;;;;2.17;1.87;;;26.00;67.50;;;;;;5062212;28;20456;-69
2022/08/07 04:21:43;;;;;;;2.57;2.37;;;25.90;67.80;;;;;;5061086;28;20531;-69
2022/08/07 04:24:29;;;;;;;2.20;2.10;;;25.90;67.90;;;;;;5078037;28;21046;-69
2022/08/07 04:27:09;;;;;;;2.60;2.33;;;25.80;67.90;;;;;;5049989;28;20455;-69
2022/08/07 04:29:54;;;;;;;2.40;2.20;;;25.70;67.70;;;;;;5062148;28;20462;-69
2022/08/07 04:32:33;;;;;;;2.20;2.00;;;25.70;67.90;;;;;;5061885;28;20557;-69
2022/08/07 04:35:08;;;;;;;2.47;2.27;;;25.60;67.80;;;;;;5045580;28;20491;-69
2022/08/07 04:37:40;;;;;;;2.43;2.23;;;25.60;67.70;;;;;;5063771;28;20489;-69
2022/08/07 04:40:31;;;;;;;2.20;2.10;;;25.60;67.20;;;;;;5076678;28;20454;-69
2022/08/07 04:43:02;;;;;;;2.10;2.00;;;25.60;67.00;;;;;;5077921;28;20527;-69
2022/08/07 04:45:44;;;;;;;2.43;2.23;;;25.60;67.40;;;;;;5061537;28;20475;-69
2022/08/07 04:48:38;;;;;;;2.03;1.90;;;25.50;67.60;;;;;;5061949;28;20495;-69
2022/08/07 04:51:26;;;;;;;1.70;1.60;;;25.40;67.40;;;;;;5044799;28;20457;-69
2022/08/07 04:54:04;;;;;;;2.17;2.00;;;25.40;67.40;;;;;;5071649;28;20482;-69
2022/08/07 04:56:46;;;;;;;2.10;2.00;;;25.30;67.40;;;;;;5082912;28;20913;-69
2022/08/07 04:59:43;;;;;;;2.00;1.90;;;25.30;67.30;;;;;;5058123;28;20472;-69
2022/08/07 05:02:43;;;;;;;2.17;2.07;;;25.30;67.00;;;;;;5084923;28;20446;-69
2022/08/07 05:05:23;;;;;;;2.40;2.20;;;25.20;66.80;;;;;;5068255;28;20483;-69
2022/08/07 05:08:20;;;;;;;2.30;2.03;;;25.20;67.50;;;;;;5084787;28;20562;-69
2022/08/07 05:11:14;;;;;;;2.20;2.10;;;25.10;67.40;;;;;;5083194;28;20743;-68
2022/08/07 05:13:55;;;;;;;1.90;1.80;;;25.10;67.10;;;;;;5072173;28;20773;-69
2022/08/07 05:16:47;;;;;;;1.90;1.80;;;25.00;67.00;;;;;;5084820;28;20444;-69
2022/08/07 05:19:24;;;;;;;2.10;2.00;;;25.00;66.70;;;;;;5084769;28;20452;-69
2022/08/07 05:22:15;;;;;;;1.93;1.83;;;25.00;66.50;;;;;;5083875;28;20456;-69
2022/08/07 05:24:58;;;;;;;2.50;2.30;;;25.00;67.40;;;;;;5069158;28;20488;-69
2022/08/07 05:27:31;;;;;;;2.23;1.77;;;25.00;66.10;;;;;;5081920;28;20798;-68
2022/08/07 05:30:23;;;;;;;1.80;1.70;;;24.90;66.50;;;;;;5065472;28;20453;-69
2022/08/07 05:33:04;;;;;;;1.80;1.70;;;24.80;66.60;;;;;;5080372;28;20501;-68
2022/08/07 05:35:39;;;;;;;1.90;1.80;;;24.80;66.80;;;;;;5049155;28;20464;-69
2022/08/07 05:38:12;;;;;;;2.03;1.83;;;24.70;67.10;;;;;;5064752;28;20492;-69
2022/08/07 05:41:05;;;;;;;1.97;1.87;;;24.60;67.10;;;;;;5064766;28;20498;-69
2022/08/07 05:43:47;;;;;;;1.93;1.83;;;24.50;67.20;;;;;;5069042;28;20667;-69
2022/08/07 05:46:39;;;;;;;1.77;1.67;;;24.40;67.70;;;;;;5084484;28;20493;-69
2022/08/07 05:49:11;;;;;;;2.30;2.13;;;24.30;67.80;;;;;;5084586;28;20458;-69
2022/08/07 05:51:44;;;;;;;2.00;1.90;;;24.20;68.60;;;;;;5048246;28;20433;-68
2022/08/07 05:54:16;;;;;;;2.07;1.97;;;24.20;68.10;;;;;;5061961;28;20521;-69
2022/08/07 05:57:10;;;;;;;1.77;1.67;;;24.10;68.20;;;;;;5059650;28;20456;-69
2022/08/07 05:59:43;;;;;;;2.30;2.10;;;24.00;68.40;;;;;;5080774;28;21061;-69
2022/08/07 06:02:30;;;;;;;1.93;1.83;;;24.00;68.50;;;;;;5072788;28;20451;-68
2022/08/07 06:05:05;;;;;;;1.90;1.80;;;23.90;68.90;;;;;;5069948;28;20483;-69
2022/08/07 06:07:39;;;;;;;1.63;1.53;;;23.80;69.30;;;;;;5062708;28;20509;-69
2022/08/07 06:10:31;;;;;;;2.07;1.90;;;23.70;69.60;;;;;;5064420;28;20504;-69
2022/08/07 06:13:03;;;;;;;1.70;1.60;;;23.70;69.40;;;;;;5064636;28;20436;-68
2022/08/07 06:15:43;;;;;;;1.50;1.40;;;23.70;69.90;;;;;;5066203;28;20509;-69
2022/08/07 06:18:14;;;;;;;2.00;1.80;;;23.60;70.10;;;;;;5084342;28;20459;-69
2022/08/07 06:20:46;;;;;;;1.70;1.60;;;23.50;70.00;;;;;;5083433;28;20451;-70
2022/08/07 06:23:37;;;;;;;2.30;1.83;;;23.50;70.50;;;;;;5082847;28;21374;-69
2022/08/07 06:26:28;;;;;;;1.50;1.40;;;23.50;70.70;;;;;;5061490;28;20445;-68
2022/08/07 06:29:00;;;;;;;1.90;1.80;;;23.50;70.90;;;;;;5056141;28;20449;-69
2022/08/07 06:31:35;;;;;;;1.60;1.50;;;23.50;71.00;;;;;;5063897;28;20448;-69
2022/08/07 06:34:19;;;;;;;1.70;1.43;;;23.40;70.40;;;;;;5049988;28;20448;-69
2022/08/07 06:36:50;;;;;;;2.13;1.90;;;23.40;71.20;;;;;;5063090;28;21319;-68
2022/08/07 06:39:22;;;;;;;2.30;2.20;;;23.30;71.00;;;;;;5064133;28;20590;-69
2022/08/07 06:42:18;;;;;;;1.90;1.80;;;23.20;71.70;;;;;;5048448;28;20440;-68
2022/08/07 06:45:09;;;;;;;1.73;1.50;;;23.10;72.30;;;;;;5063748;28;20488;-68
2022/08/07 06:47:46;;;;;;;1.57;1.40;;;23.10;72.00;;;;;;5060623;28;20547;-68
2022/08/07 06:50:29;;;;;;;2.63;1.50;;;23.10;72.00;;;;;;5056524;28;20512;-69
2022/08/07 06:53:01;;;;;;;1.70;1.60;;;23.10;71.50;;;;;;5082533;28;20793;-69
2022/08/07 06:55:34;;;;;;;1.40;1.40;;;23.20;71.50;;;;;;5083461;28;20447;-68
2022/08/07 06:58:26;;;;;;;1.60;1.50;;;23.10;72.70;;;;;;5083634;28;20467;-68
2022/08/07 07:01:00;;;;;;;1.60;1.50;;;23.00;72.60;;;;;;5073695;28;20455;-68
2022/08/07 07:03:34;;;;;;;1.57;1.47;;;23.00;72.80;;;;;;5063520;28;20456;-68
2022/08/07 07:06:25;;;;;;;1.53;1.43;;;22.90;73.00;;;;;;5056155;28;20977;-68
2022/08/07 07:08:55;;;;;;;1.73;1.63;;;22.80;73.10;;;;;;5063683;28;20472;-69
2022/08/07 07:11:27;;;;;;;1.30;1.20;;;22.80;73.70;;;;;;5076208;28;20448;-69
2022/08/07 07:14:21;;;;;;;1.50;1.40;;;22.70;74.40;;;;;;5082754;28;20434;-69
2022/08/07 07:16:57;;;;;;;1.50;1.20;;;22.60;74.30;;;;;;5075650;28;20467;-68
2022/08/07 07:19:33;;;;;;;1.77;1.67;;;22.60;74.80;;;;;;5062944;28;20459;-68
2022/08/07 07:22:25;;;;;;;1.70;1.60;;;22.50;75.30;;;;;;5045677;28;20440;-68
2022/08/07 07:25:13;;;;;;;1.80;1.70;;;22.40;75.20;;;;;;5062911;28;21190;-68
2022/08/07 07:28:20;;;;;;;1.57;1.47;;;22.30;78.40;;;;;;5062980;28;20506;-68
2022/08/07 07:31:19;;;;;;;1.70;1.60;;;22.20;78.70;;;;;;5071861;28;20537;-67
2022/08/07 07:33:59;;;;;;;1.83;1.73;;;22.10;77.50;;;;;;5082689;28;20461;-70
2022/08/07 07:36:30;;;;;;;1.83;1.43;;;22.10;77.80;;;;;;5064515;28;20536;-69
2022/08/07 07:39:03;;;;;;;1.93;1.83;;;22.00;77.70;;;;;;5082552;28;20444;-69
2022/08/07 07:41:38;;;;;;;2.40;1.60;;;22.00;77.50;;;;;;5070148;28;20447;-70
2022/08/07 07:44:32;;;;;;;1.67;1.57;;;21.90;78.50;;;;;;5081255;28;20488;-69
2022/08/07 07:47:06;;;;;;;2.30;1.30;;;21.90;78.90;;;;;;5082502;28;20511;-69
2022/08/07 07:49:55;;;;;;;1.43;1.33;;;21.80;80.00;;;;;;5082776;28;20448;-69
2022/08/07 07:52:47;;;;;;;2.10;1.87;;;21.70;80.00;;;;;;5067779;28;20479;-69
2022/08/07 07:55:19;;;;;;;1.80;1.70;;;21.70;82.10;;;;;;5071812;28;20460;-69
2022/08/07 07:57:52;;;;;;;2.00;1.80;;;21.60;84.00;;;;;;5062186;28;20510;-69
2022/08/07 08:00:29;;;;;;;1.97;1.77;;;21.50;84.70;;;;;;5063576;28;20471;-70
2022/08/07 08:03:06;;;;;;;1.77;1.67;;;21.40;84.50;;;;;;5076939;28;20478;-69
2022/08/07 08:05:48;;;;;;;1.70;1.57;;;21.30;85.00;;;;;;5061631;28;20491;-69
2022/08/07 08:08:26;;;;;;;1.57;1.47;;;21.30;87.00;;;;;;5079296;28;20524;-69
2022/08/07 08:11:10;;;;;;;2.20;1.47;;;21.20;86.00;;;;;;5054462;28;20447;-69
2022/08/07 08:13:48;;;;;;;1.90;1.50;;;21.20;87.10;;;;;;5082373;28;20449;-69
2022/08/07 08:16:30;;;;;;;1.90;1.80;;;21.10;88.60;;;;;;5081994;28;20757;-69
2022/08/07 08:19:07;;;;;;;2.07;1.90;;;21.00;90.00;;;;;;5082282;28;20842;-69
2022/08/07 08:28:16;;;;;;;1.80;1.70;;;20.70;91.40;;;;;;5003644;28;20447;-69
2022/08/07 08:31:09;;;;;;;2.50;1.50;;;20.70;91.70;;;;;;4991950;28;20464;-69
2022/08/07 08:33:50;;;;;;;1.97;1.83;;;20.60;92.20;;;;;;5026632;28;20484;-69
2022/08/07 08:36:28;;;;;;;2.23;1.50;;;20.50;92.30;;;;;;5010980;28;20430;-69
2022/08/07 08:39:03;;;;;;;2.50;2.30;;;20.40;92.80;;;;;;5017599;28;20608;-69
2022/08/07 08:41:48;;;;;;;1.50;1.40;;;20.40;92.60;;;;;;5016797;28;20450;-69
2022/08/07 08:44:35;;;;;;;1.93;1.67;;;20.40;92.40;;;;;;5007184;28;20515;-69
2022/08/07 08:47:22;;;;;;;2.17;1.60;;;20.40;92.70;;;;;;5006596;28;20632;-69
2022/08/07 08:50:03;;;;;;;1.43;1.33;;;20.40;93.30;;;;;;5007361;28;20892;-69
2022/08/07 08:52:39;;;;;;;2.73;1.90;;;20.40;94.10;;;;;;5021386;28;20449;-69
2022/08/07 08:55:30;;;;;;;1.80;1.70;;;20.30;94.50;;;;;;4998071;28;20498;-70
2022/08/07 08:58:33;;;;;;;1.83;1.70;;;20.20;94.80;;;;;;5026240;28;20474;-69
2022/08/07 09:01:11;;;;;;;1.60;1.50;;;20.20;95.20;;;;;;5029225;28;20433;-69
2022/08/07 09:03:54;;;;;;;2.40;2.20;;;20.10;95.00;;;;;;5069127;28;20447;-69
2022/08/07 09:06:41;;;;;;;1.97;1.80;;;20.10;94.20;;;;;;5068258;28;20487;-69
2022/08/07 09:09:44;;;;;;;1.80;1.70;;;20.10;93.50;;;;;;5069644;28;20448;-68
2022/08/07 09:12:41;;;;;;;1.60;1.50;;;20.00;92.90;;;;;;5080447;28;20427;-69
2022/08/07 09:15:44;;;;;;;1.93;1.83;;;19.90;94.40;;;;;;5052987;28;20440;-69
2022/08/07 09:18:53;;;;;;;1.80;1.70;;;19.90;95.20;;;;;;5062835;28;20448;-69
2022/08/07 09:21:35;;;;;;;1.70;1.60;;;19.90;96.70;;;;;;5057153;28;20410;-69
2022/08/07 09:24:40;;;;;;;1.90;1.80;;;19.80;97.00;;;;;;5088781;28;20862;-69
2022/08/07 09:27:42;;;;;;;1.80;1.70;;;19.70;97.20;;;;;;5088050;28;20454;-69
2022/08/07 09:30:47;;;;;;;1.87;1.77;;;19.70;97.90;;;;;;5087187;28;20440;-69
2022/08/07 09:33:47;;;;;;;1.60;1.50;;;19.60;97.90;;;;;;5088589;28;20433;-69
2022/08/07 09:36:30;;;;;;;1.70;1.60;;;19.60;98.60;;;;;;5087095;28;20501;-69
2022/08/07 09:39:29;;;;;;;2.77;1.77;;;19.50;97.00;;;;;;5068408;28;20451;-69
2022/08/07 09:42:35;;;;;;;1.53;1.20;;;19.50;97.30;;;;;;5081823;28;20573;-69
2022/08/07 09:45:15;;;;;;;1.50;1.40;;;19.50;97.90;;;;;;5084948;28;20426;-69
2022/08/07 09:48:28;;;;;;;2.03;1.83;;;19.60;98.40;;;;;;5072565;28;20444;-69
2022/08/07 09:51:40;;;;;;;1.60;1.50;;;19.50;97.40;;;;;;5063845;28;20445;-69
2022/08/07 09:54:39;;;;;;;1.60;1.50;;;19.50;96.70;;;;;;5075361;28;20440;-69
2022/08/07 09:57:39;;;;;;;1.93;1.77;;;19.40;96.30;;;;;;5062812;28;20487;-69
2022/08/07 10:00:20;;;;;;;2.40;1.70;;;19.40;96.80;;;;;;5064969;28;20471;-69
2022/08/07 10:03:36;;;;;;;1.97;1.87;;;19.30;97.70;;;;;;5064691;28;20486;-69
2022/08/07 10:06:59;;;;;;;1.50;1.40;;;19.30;98.30;;;;;;5063909;28;20422;-69
2022/08/07 10:09:59;;;;;;;2.30;2.17;;;19.20;98.00;;;;;;5053900;28;20455;-69
2022/08/07 10:12:51;;;;;;;2.07;1.93;;;19.20;98.40;;;;;;5084227;28;20482;-69
2022/08/07 10:15:42;;;;;;;1.70;1.60;;;19.10;99.20;;;;;;5065026;28;20484;-69
2022/08/07 10:18:51;;;;;;;1.70;1.60;;;19.10;99.90;;;;;;5064390;28;20502;-69
2022/08/07 10:21:40;;;;;;;1.57;1.47;;;19.00;99.40;;;;;;5049056;28;20447;-69
2022/08/07 10:24:45;;;;;;;2.13;1.90;;;18.90;99.90;;;;;;5064643;28;20498;-69
2022/08/07 10:27:36;;;;;;;1.63;1.53;;;18.90;99.90;;;;;;5070955;28;21001;-69
2022/08/07 10:30:18;;;;;;;1.70;1.60;;;19.00;99.90;;;;;;5084135;28;20440;-69
2022/08/07 10:33:25;;;;;;;2.30;2.20;;;18.90;99.90;;;;;;5083554;28;20447;-69
2022/08/07 10:36:29;;;;;;;1.90;1.80;;;18.80;99.90;;;;;;5083020;28;20454;-69
2022/08/07 10:39:20;;;;;;;1.87;1.77;;;18.70;99.90;;;;;;5050812;28;20452;-68
2022/08/07 10:42:08;;;;;;;2.07;1.97;;;18.70;99.90;;;;;;5083838;28;20463;-67
2022/08/07 10:45:06;;;;;;;1.67;1.57;;;18.60;99.90;;;;;;5063208;28;20440;-69
2022/08/07 10:47:46;;;;;;;1.97;1.87;;;18.60;99.90;;;;;;5070983;28;20425;-69
2022/08/07 10:50:30;;;;;;;3.23;2.23;;;18.50;99.90;;;;;;5058255;28;20531;-69
2022/08/07 10:53:10;;;;;;;1.80;1.53;;;18.50;99.90;;;;;;5063870;28;20449;-69
2022/08/07 10:55:54;;;;;;;2.03;1.93;;;18.40;99.90;;;;;;5063534;28;20490;-69
2022/08/07 10:58:52;;;;;;;2.17;2.03;;;18.30;99.90;;;;;;5063570;28;20450;-69
2022/08/07 11:01:41;;;;;;;2.20;1.77;;;18.30;99.90;;;;;;5054081;28;20429;-69
2022/08/07 11:04:45;;;;;;;1.97;1.87;;;18.20;99.90;;;;;;5067482;28;20441;-69
2022/08/07 11:07:31;;;;;;;1.90;1.80;;;18.10;99.90;;;;;;5048084;28;20515;-69
2022/08/07 11:10:30;;;;;;;1.70;1.60;;;18.10;99.90;;;;;;5063255;28;20444;-69
2022/08/07 11:13:21;;;;;;;1.80;1.70;;;18.00;99.90;;;;;;5063514;28;20427;-69
2022/08/07 11:16:20;;;;;;;2.40;2.30;;;18.00;99.90;;;;;;5062707;28;20528;-69
2022/08/07 11:19:06;;;;;;;2.13;1.83;;;17.90;99.90;;;;;;5048284;28;20477;-69
2022/08/07 11:21:51;;;;;;;1.90;1.80;;;17.80;99.90;;;;;;5062064;28;20457;-69
2022/08/07 11:24:29;;;;;;;2.07;1.97;;;17.80;99.90;;;;;;5063309;28;20451;-68
2022/08/07 11:27:09;;;;;;;2.00;1.80;;;17.80;99.90;;;;;;5062831;28;20459;-70
2022/08/07 11:29:50;;;;;;;2.17;1.97;;;17.70;99.90;;;;;;5062717;28;20456;-69
2022/08/07 11:32:48;;;;;;;1.93;1.83;;;17.70;99.90;;;;;;5074240;28;20849;-69
2022/08/07 11:35:25;;;;;;;2.07;1.60;;;17.60;99.90;;;;;;5063233;28;20457;-69
2022/08/07 11:38:10;;;;;;;1.53;1.43;;;17.60;99.90;;;;;;5061615;28;20502;-69
2022/08/07 11:40:59;;;;;;;2.00;1.90;;;17.50;99.90;;;;;;5062757;28;20431;-69
2022/08/07 11:43:35;;;;;;;2.00;1.80;;;17.40;99.90;;;;;;5062936;28;20434;-69
2022/08/07 11:46:49;;;;;;;2.40;2.20;;;17.40;99.90;;;;;;5046646;28;20411;-69
2022/08/07 11:49:36;;;;;;;2.57;2.37;;;17.30;99.90;;;;;;5073388;28;20426;-69
2022/08/07 11:52:43;;;;;;;2.50;2.30;;;17.40;99.90;;;;;;5081164;28;20447;-69
2022/08/07 11:55:26;;;;;;;2.20;2.00;;;17.30;99.90;;;;;;5072660;28;20459;-69
2022/08/07 11:58:31;;;;;;;1.90;1.80;;;17.30;99.90;;;;;;5079224;28;20490;-69
2022/08/07 12:01:18;;;;;;;1.70;1.60;;;17.20;99.90;;;;;;5081948;28;20460;-69
2022/08/07 12:04:18;;;;;;;2.17;2.07;;;17.20;99.90;;;;;;5068233;28;20811;-69
2022/08/07 12:06:53;;;;;;;2.40;2.07;;;17.10;99.90;;;;;;5046248;28;20444;-69
2022/08/07 12:09:44;;;;;;;1.90;1.80;;;17.10;99.90;;;;;;5062024;28;20459;-69
2022/08/07 12:12:20;;;;;;;2.30;2.10;;;17.10;99.90;;;;;;5062166;28;20459;-69
2022/08/07 12:15:02;;;;;;;2.30;2.20;;;17.10;99.90;;;;;;5062786;28;20525;-69
2022/08/07 12:17:41;;;;;;;2.30;2.10;;;17.10;99.90;;;;;;5061962;28;20466;-69
2022/08/07 12:20:35;;;;;;;1.93;1.83;;;17.00;99.90;;;;;;5063246;28;20429;-69
2022/08/07 12:23:35;;;;;;;2.40;2.20;;;17.00;99.90;;;;;;5075162;28;20438;-69
2022/08/07 12:26:32;;;;;;;2.20;2.00;;;16.90;99.90;;;;;;5045111;28;20444;-69
2022/08/07 12:29:24;;;;;;;2.40;2.20;;;16.90;99.90;;;;;;5053691;28;20494;-69
2022/08/07 12:32:18;;;;;;;2.10;2.00;;;16.80;99.90;;;;;;5061762;28;20488;-68
2022/08/07 12:34:51;;;;;;;2.17;1.97;;;16.70;99.90;;;;;;5062439;28;20482;-69
2022/08/07 12:37:26;;;;;;;3.70;2.30;;;16.70;99.90;;;;;;5073080;28;20659;-69
2022/08/07 12:40:21;;;;;;;2.87;2.63;;;16.70;99.90;;;;;;5073719;28;20452;-69
2022/08/07 12:43:13;;;;;;;2.37;2.17;;;16.60;99.90;;;;;;5068161;28;20435;-69
2022/08/07 12:46:16;;;;;;;2.60;2.10;;;16.60;99.90;;;;;;5061994;28;20453;-69
2022/08/07 12:49:09;;;;;;;2.00;1.87;;;16.50;99.90;;;;;;5061836;28;20501;-69
2022/08/07 12:52:12;;;;;;;1.80;1.70;;;16.50;99.90;;;;;;5045418;28;20403;-69
2022/08/07 12:54:58;;;;;;;3.23;1.80;;;16.50;99.90;;;;;;5062297;28;20428;-69
2022/08/07 12:57:37;;;;;;;2.37;1.90;;;16.50;99.90;;;;;;5047354;28;20454;-69
2022/08/07 13:00:34;;;;;;;2.57;2.30;;;16.50;99.90;;;;;;5075824;28;20556;-69
2022/08/07 13:03:45;;;;;;;1.80;1.70;;;16.50;99.90;;;;;;5081978;28;20408;-69
2022/08/07 13:06:43;;;;;;;2.33;2.13;;;16.40;99.90;;;;;;5080835;28;20520;-69
2022/08/07 13:09:51;;;;;;;2.37;1.90;;;16.40;99.90;;;;;;5079432;28;20458;-69
2022/08/07 13:13:02;;;;;;;1.77;1.60;;;16.40;99.90;;;;;;5081479;28;20447;-68
2022/08/07 13:15:54;;;;;;;2.63;2.43;;;16.40;99.90;;;;;;5079163;28;20425;-69
2022/08/07 13:18:37;;;;;;;3.57;2.23;;;16.30;99.90;;;;;;5052313;28;20530;-69
2022/08/07 13:21:14;;;;;;;2.43;2.23;;;16.40;99.90;;;;;;5077945;28;20414;-69
2022/08/07 13:24:16;;;;;;;2.50;2.30;;;16.30;99.90;;;;;;5084806;28;20435;-69
2022/08/07 13:26:53;;;;;;;3.13;2.00;;;16.30;99.90;;;;;;5084636;28;20509;-69
2022/08/07 13:29:30;;;;;;;2.70;2.37;;;16.30;99.90;;;;;;5084499;28;20484;-69
2022/08/07 13:32:07;;;;;;;2.60;2.40;;;16.30;99.90;;;;;;5049297;28;20423;-69
2022/08/07 13:35:04;;;;;;;2.60;2.40;;;16.30;99.90;;;;;;5065075;28;20498;-69
2022/08/07 13:37:49;;;;;;;2.73;2.20;;;16.30;99.90;;;;;;5064238;28;20503;-69
2022/08/07 13:40:32;;;;;;;3.53;2.13;;;16.30;99.90;;;;;;5059691;28;20476;-69
2022/08/07 13:43:15;;;;;;;6.10;2.90;;;16.30;99.90;;;;;;5077283;28;20439;-69
2022/08/07 13:45:56;;;;;;;3.17;2.83;;;16.40;99.90;;;;;;5081732;28;20533;-69
2022/08/07 13:48:49;;;;;;;1.90;1.80;;;16.50;99.90;;;;;;5064989;28;20455;-69
2022/08/07 13:51:29;;;;;;;2.40;2.20;;;16.50;99.90;;;;;;5063545;28;20431;-69
2022/08/07 13:54:28;;;;;;;3.70;2.40;;;16.50;99.90;;;;;;5064668;28;20536;-69
2022/08/07 13:57:08;;;;;;;2.10;1.90;;;16.50;99.90;;;;;;5064364;28;20487;-69
2022/08/07 13:59:47;;;;;;;3.53;2.40;;;16.50;99.90;;;;;;5067501;28;20540;-69
2022/08/07 14:02:26;;;;;;;2.17;2.00;;;16.50;99.90;;;;;;5075676;28;20448;-69
2022/08/07 14:05:16;;;;;;;2.93;2.50;;;16.60;99.90;;;;;;5065022;28;20469;-69
2022/08/07 14:07:49;;;;;;;2.47;2.30;;;16.60;99.90;;;;;;5066340;28;20440;-69
2022/08/07 14:10:36;;;;;;;2.20;2.07;;;16.60;99.90;;;;;;5084325;28;20417;-69
2022/08/07 14:13:17;;;;;;;2.40;2.20;;;16.60;99.90;;;;;;5084608;28;20447;-69
2022/08/07 14:15:54;;;;;;;2.53;2.33;;;16.70;99.90;;;;;;5076778;28;20429;-69
2022/08/07 14:18:31;;;;;;;2.27;2.07;;;16.70;99.90;;;;;;5075854;28;20502;-69
2022/08/07 14:21:10;;;;;;;2.83;2.50;;;16.70;99.90;;;;;;5082426;28;21303;-69
2022/08/07 14:24:04;;;;;;;2.30;2.10;;;16.70;99.90;;;;;;5084258;28;20422;-68